St Pierre — FIDX — position and weather

sailwx.info

Track history (hours):
 
Tides and Currents Weather Stations Pressure Air Temp Water Temp Dewpoint Dewpoint Depression Visibility Wind Speed Wind Dir Waves Ship Positions

St Pierre

Last reported at 2017-May-29 11:01 UTC. Time now 2017-May-29 11:26 UTC.
Position N 47°44' W 003°21'.

Length 84 m; draft 5.8 m.

Type: Cargo ship. MMSI: 228024800.

Date/timePositionNaut miles runAvg speedWind from/ knotsBaromVisibWave heightAir tempDewpointWater temp
2017-May-29 11:01N 47°44' W 003°21'0 0.0
2017-May-29 10:31N 47°44' W 003°21'0 0.0
2017-May-29 10:01N 47°44' W 003°21'0 0.0
2017-May-29 09:31N 47°44' W 003°21'0 0.0
2017-May-29 09:01N 47°44' W 003°21'0 0.0
2017-May-29 08:31N 47°44' W 003°21'0 0.0
2017-May-29 08:01N 47°44' W 003°21'0 0.0
2017-May-29 07:31N 47°44' W 003°21'0 0.0
2017-May-29 07:01N 47°44' W 003°21'0 0.0
2017-May-29 06:31N 47°44' W 003°21'0 0.0
2017-May-29 06:00N 47°44' W 003°21'0 0.0
2017-May-29 05:31N 47°44' W 003°21'0 0.0
2017-May-29 05:01N 47°44' W 003°21'0 0.0
2017-May-29 04:31N 47°44' W 003°21'0 0.0
2017-May-29 04:01N 47°44' W 003°21'0 0.0
2017-May-29 03:30N 47°44' W 003°21'0 0.0
2017-May-29 03:01N 47°44' W 003°21'0 0.0
2017-May-29 02:30N 47°44' W 003°21'0 0.0
2017-May-29 02:01N 47°44' W 003°21'0 0.0
2017-May-29 01:31N 47°44' W 003°21'0 0.0
2017-May-29 01:01N 47°44' W 003°21'0 0.0
2017-May-29 00:31N 47°44' W 003°21'0 0.0
2017-May-29 00:01N 47°44' W 003°21'0 0.0
2017-May-28 23:31N 47°44' W 003°21'0 0.0
2017-May-28 23:01N 47°44' W 003°21'0 0.0
2017-May-28 22:31N 47°44' W 003°21'0 0.0
2017-May-28 22:01N 47°44' W 003°21'0 0.0
2017-May-28 21:31N 47°44' W 003°21'0 0.0
2017-May-28 21:01N 47°44' W 003°21'0 0.0
2017-May-28 20:31N 47°44' W 003°21'0 0.0
2017-May-28 20:01N 47°44' W 003°21'0 0.0
2017-May-28 19:30N 47°44' W 003°21'0 0.0
2017-May-28 19:00N 47°44' W 003°21'0 0.0
2017-May-28 18:31N 47°44' W 003°21'0 0.0
2017-May-28 18:01N 47°44' W 003°21'0 0.0
2017-May-28 17:31N 47°44' W 003°21'3 5.9
2017-May-28 17:01N 47°41' W 003°22'4 7.8
2017-May-28 16:31N 47°38' W 003°19'510.4
2017-May-28 16:01N 47°33' W 003°16'611.5
2017-May-28 15:31N 47°28' W 003°12'611.2
2017-May-28 15:01N 47°23' W 003°08'1312.7
2017-May-28 14:00N 47°17' W 002°51'612.5
2017-May-28 13:31N 47°14' W 002°43'611.4
2017-May-28 12:58N 47°11' W 002°35'511.9
2017-May-28 12:31N 47°08' W 002°29'510.5
2017-May-28 12:00N 47°05' W 002°22'1 1.4
2017-May-28 11:31N 47°05' W 002°21'0 0.7
2017-May-28 11:00N 47°05' W 002°22'0 0.4
2017-May-28 10:31N 47°05' W 002°21'0 0.5
2017-May-28 10:00N 47°05' W 002°22'0 0.4
2017-May-28 09:30N 47°05' W 002°21'2 3.3
2017-May-28 09:01N 47°06' W 002°21'713.4
2017-May-28 08:31N 47°13' W 002°17'714.3
2017-May-28 08:00N 47°17' W 002°09'713.2
2017-May-28 07:30N 47°17' W 001°60'612.5
2017-May-28 07:00N 47°15' W 001°51'510.5
2017-May-28 06:30N 47°12' W 001°44'4 8.7
2017-May-28 06:00N 47°12' W 001°38'0 0.0
2017-May-28 05:30N 47°12' W 001°38'0 0.0
2017-May-28 05:00N 47°12' W 001°38'0 0.0
2017-May-28 04:30N 47°12' W 001°38'0 0.3
2017-May-28 04:00N 47°12' W 001°38'4 8.3
2017-May-28 03:30N 47°12' W 001°44'510.0
2017-May-28 03:00N 47°15' W 001°51'611.6
2017-May-28 02:30N 47°17' W 001°59'611.7
2017-May-28 02:01N 47°18' W 002°07'612.9
2017-May-28 01:31N 47°14' W 002°15'611.4
2017-May-28 01:01N 47°09' W 002°19'5 9.5
2017-May-28 00:31N 47°05' W 002°22'1 1.2
2017-May-28 00:01N 47°05' W 002°21'0 0.7
2017-May-27 23:31N 47°05' W 002°22'0 0.9
2017-May-27 23:00N 47°05' W 002°21'0 0.9
2017-May-27 22:31N 47°05' W 002°22'0 0.8
2017-May-27 22:00N 47°05' W 002°21'0 0.9
2017-May-27 21:31N 47°05' W 002°22'4 8.2
2017-May-27 21:00N 47°07' W 002°27'510.9
2017-May-27 20:30N 47°09' W 002°34'611.4
2017-May-27 20:00N 47°13' W 002°41'612.1
2017-May-27 19:31N 47°16' W 002°48'612.2
2017-May-27 19:00N 47°19' W 002°56'612.5
2017-May-27 18:31N 47°22' W 003°04'612.3
2017-May-27 18:01N 47°26' W 003°11'612.4
2017-May-27 17:31N 47°32' W 003°15'612.7
2017-May-27 17:01N 47°37' W 003°19'611.2
2017-May-27 16:31N 47°43' W 003°22'1 3.0
2017-May-27 16:01N 47°44' W 003°21'0 0.0
2017-May-27 15:31N 47°44' W 003°21'0 0.0
2017-May-27 15:01N 47°44' W 003°21'0 0.0
2017-May-27 14:01N 47°44' W 003°21'0 0.0
2017-May-27 13:31N 47°44' W 003°21'0 0.0
2017-May-27 13:01N 47°44' W 003°21'0 0.0
2017-May-27 12:31N 47°44' W 003°21'0 0.0
2017-May-27 12:01N 47°44' W 003°21'0 0.0
2017-May-27 11:31N 47°44' W 003°21'0 0.0
2017-May-27 11:01N 47°44' W 003°21'0 0.0
2017-May-27 10:31N 47°44' W 003°21'0 0.0
2017-May-27 10:01N 47°44' W 003°21'0 0.0
2017-May-27 09:31N 47°44' W 003°21'0 0.0
2017-May-27 09:00N 47°44' W 003°21'0 0.0
2017-May-27 08:31N 47°44' W 003°21'0 0.0
2017-May-27 08:00N 47°44' W 003°21'0 0.0
2017-May-27 07:31N 47°44' W 003°21'0 0.0
2017-May-27 07:01N 47°44' W 003°21'0 0.0
2017-May-27 06:31N 47°44' W 003°21'2 3.1
2017-May-27 06:01N 47°45' W 003°19'0 0.1
2017-May-27 05:31N 47°45' W 003°19'0 0.0
2017-May-27 05:01N 47°45' W 003°19'0 0.0
2017-May-27 04:31N 47°45' W 003°19'0 0.0
2017-May-27 04:01N 47°45' W 003°19'1 2.0
2017-May-27 03:31N 47°44' W 003°20'5 9.4
2017-May-27 03:01N 47°41' W 003°25'0 0.7
2017-May-27 02:31N 47°40' W 003°25'0 0.0
2017-May-27 02:01N 47°40' W 003°25'0 0.0
2017-May-27 01:31N 47°40' W 003°25'0 0.0
2017-May-27 01:01N 47°40' W 003°25'0 0.0
2017-May-27 00:31N 47°40' W 003°25'0 0.0
2017-May-27 00:01N 47°40' W 003°25'0 0.1
2017-May-26 23:31N 47°40' W 003°25'0 0.0
2017-May-26 23:01N 47°40' W 003°25'0 0.0
2017-May-26 22:31N 47°40' W 003°25'0 0.1
2017-May-26 22:01N 47°40' W 003°25'0 0.0
2017-May-26 21:31N 47°40' W 003°25'0 0.0
2017-May-26 21:01N 47°40' W 003°25'0 0.0
2017-May-26 20:31N 47°40' W 003°25'0 0.0
2017-May-26 20:01N 47°40' W 003°25'0 0.0
2017-May-26 19:31N 47°40' W 003°25'0 0.1
2017-May-26 19:01N 47°40' W 003°25'4 9.0
2017-May-26 18:31N 47°38' W 003°19'510.2
2017-May-26 18:01N 47°33' W 003°16'510.0
2017-May-26 17:31N 47°29' W 003°13'5 9.9
2017-May-26 17:01N 47°25' W 003°09'510.3
2017-May-26 16:31N 47°21' W 003°03'5 9.9
2017-May-26 16:01N 47°19' W 002°57'510.2
2017-May-26 15:30N 47°17' W 002°50'510.3
2017-May-26 15:00N 47°14' W 002°43'10 9.4
2017-May-26 13:55N 47°09' W 002°31'4 9.7
2017-May-26 13:29N 47°06' W 002°26'3 6.2
2017-May-26 13:00N 47°05' W 002°22'1 1.2
2017-May-26 12:30N 47°05' W 002°21'0 0.8
2017-May-26 12:00N 47°05' W 002°22'0 0.4
2017-May-26 11:23N 47°05' W 002°22'0 1.0
2017-May-26 11:00N 47°05' W 002°21'0 0.5
2017-May-26 10:27N 47°05' W 002°22'2 4.8
2017-May-26 09:56N 47°07' W 002°21'4 9.5
2017-May-26 09:30N 47°11' W 002°18'611.9
2017-May-26 09:00N 47°16' W 002°12'612.1
2017-May-26 08:30N 47°18' W 002°04'713.4
2017-May-26 08:00N 47°17' W 001°55'613.0
2017-May-26 07:30N 47°13' W 001°47'510.9
2017-May-26 07:00N 47°12' W 001°39'2 3.6
2017-May-26 06:30N 47°12' W 001°37'0 0.2
2017-May-26 06:00N 47°12' W 001°37'1 1.3
2017-May-26 05:30N 47°12' W 001°38'0 0.0
2017-May-26 05:00N 47°12' W 001°38'0 0.0
2017-May-26 04:30N 47°12' W 001°38'0 1.0
2017-May-26 04:00N 47°12' W 001°39'5 9.4
2017-May-26 03:30N 47°12' W 001°45'5 9.8
2017-May-26 03:00N 47°15' W 001°51'510.5
2017-May-26 02:30N 47°17' W 001°58'611.5
2017-May-26 02:00N 47°18' W 002°07'611.5
2017-May-26 01:30N 47°15' W 002°14'510.2
2017-May-26 01:00N 47°11' W 002°18'5 9.3
2017-May-26 00:30N 47°06' W 002°20'1 1.3
2017-May-25 23:59N 47°06' W 002°21'1 2.2
2017-May-25 23:30N 47°05' W 002°21'1 1.1
2017-May-25 23:00N 47°05' W 002°22'0 0.7
2017-May-25 22:30N 47°05' W 002°21'0 0.7
2017-May-25 22:00N 47°05' W 002°22'0 0.7
2017-May-25 21:30N 47°05' W 002°21'0 0.8
2017-May-25 21:00N 47°05' W 002°22'0 0.4
2017-May-25 20:30N 47°05' W 002°22'2 4.0
2017-May-25 19:59N 47°07' W 002°21'510.1
2017-May-25 19:30N 47°11' W 002°18'612.0
2017-May-25 19:00N 47°16' W 002°12'612.5
2017-May-25 18:30N 47°18' W 002°03'713.1
2017-May-25 18:00N 47°17' W 001°54'612.1
2017-May-25 17:31N 47°13' W 001°47'510.8
2017-May-25 17:00N 47°12' W 001°40'1 2.4
2017-May-25 16:30N 47°12' W 001°38'0 0.0
2017-May-25 16:00N 47°12' W 001°38'0 0.0
2017-May-25 15:30N 47°12' W 001°38'0 0.4
2017-May-25 15:00N 47°12' W 001°38'510.0
2017-May-25 14:30N 47°12' W 001°45'1211.9
2017-May-25 13:30N 47°18' W 002°01'712.8
2017-May-25 13:00N 47°17' W 002°11'612.6
2017-May-25 12:30N 47°12' W 002°17'612.1
2017-May-25 12:00N 47°07' W 002°20'2 3.6
2017-May-25 11:30N 47°05' W 002°22'1 1.0
2017-May-25 11:00N 47°05' W 002°21'0 0.9
2017-May-25 10:30N 47°05' W 002°22'0 0.3
2017-May-25 10:00N 47°05' W 002°21'0 0.3
2017-May-25 09:30N 47°05' W 002°22'0 0.1
2017-May-25 09:00N 47°05' W 002°22'0 0.6
2017-May-25 08:30N 47°05' W 002°21'1 1.1
2017-May-25 08:00N 47°05' W 002°22'4 8.2
2017-May-25 07:30N 47°09' W 002°19'612.7
2017-May-25 07:00N 47°14' W 002°15'713.3
2017-May-25 06:31N 47°18' W 002°07'0 0.0
2017-May-25 06:01N 47°18' W 002°07'0 0.0
2017-May-25 05:31N 47°18' W 002°07'0 0.0
2017-May-25 05:00N 47°18' W 002°07'0 0.0
2017-May-25 04:31N 47°18' W 002°07'1 1.3
2017-May-25 04:01N 47°18' W 002°08'4 8.7
2017-May-25 03:30N 47°15' W 002°13'510.0
2017-May-25 03:01N 47°11' W 002°18'510.2
2017-May-25 02:30N 47°07' W 002°21'2 3.1
2017-May-25 02:01N 47°06' W 002°22'0 0.2
2017-May-25 01:31N 47°06' W 002°22'0 0.3
2017-May-25 01:01N 47°06' W 002°22'0 0.8
2017-May-25 00:31N 47°06' W 002°22'1 1.1
2017-May-25 00:01N 47°05' W 002°22'1 1.1
2017-May-24 23:31N 47°06' W 002°22'1 1.2
2017-May-24 23:01N 47°05' W 002°22'0 1.0
2017-May-24 22:31N 47°06' W 002°22'3 6.2
2017-May-24 22:00N 47°09' W 002°20'510.3
2017-May-24 21:31N 47°13' W 002°16'611.7
2017-May-24 21:01N 47°17' W 002°10'611.8
2017-May-24 20:30N 47°18' W 002°02'713.2
2017-May-24 20:00N 47°16' W 001°52'612.8
2017-May-24 19:30N 47°12' W 001°45'4 9.0
2017-May-24 19:01N 47°12' W 001°38'0 0.0
2017-May-24 18:31N 47°12' W 001°38'0 0.0
2017-May-24 18:00N 47°12' W 001°38'0 0.0
2017-May-24 17:31N 47°12' W 001°38'0 0.0
2017-May-24 17:00N 47°12' W 001°38'3 6.7
2017-May-24 16:31N 47°12' W 001°43'5 9.6
2017-May-24 16:00N 47°13' W 001°50'6 9.8
2017-May-24 15:22N 47°17' W 001°57'4 9.9
2017-May-24 14:57N 47°18' W 002°03'510.5
2017-May-24 14:30N 47°17' W 002°10'1211.8
2017-May-24 13:28N 47°07' W 002°20'3 4.4
2017-May-24 12:53N 47°05' W 002°21'0 0.5
2017-May-24 12:19N 47°05' W 002°22'0 1.3
2017-May-24 12:00N 47°05' W 002°21'0 0.5
2017-May-24 11:28N 47°05' W 002°22'0 0.2
2017-May-24 10:57N 47°05' W 002°22'0 0.8
2017-May-24 10:30N 47°05' W 002°21'0 0.8
2017-May-24 10:00N 47°05' W 002°22'1 1.4
2017-May-24 09:30N 47°05' W 002°21'611.7
2017-May-24 09:01N 47°08' W 002°28'611.3
2017-May-24 08:30N 47°10' W 002°36'611.4
2017-May-24 08:00N 47°14' W 002°42'611.3
2017-May-24 07:31N 47°16' W 002°50'611.5
2017-May-24 07:00N 47°19' W 002°57'611.6
2017-May-24 06:31N 47°22' W 003°05'510.6
2017-May-24 06:01N 47°25' W 003°11'611.7
2017-May-24 05:31N 47°30' W 003°14'612.1
2017-May-24 05:01N 47°36' W 003°18'611.6
2017-May-24 04:30N 47°41' W 003°22'4 8.7
2017-May-24 04:00N 47°45' W 003°19'0 0.0
2017-May-24 03:30N 47°45' W 003°19'0 0.0
2017-May-24 03:00N 47°45' W 003°19'0 0.0
2017-May-24 02:30N 47°45' W 003°19'0 0.0
2017-May-24 02:00N 47°45' W 003°19'0 0.1
2017-May-24 01:30N 47°45' W 003°19'3 5.4
2017-May-24 01:00N 47°43' W 003°22'3 6.1
2017-May-24 00:30N 47°40' W 003°22'1 1.4
2017-May-24 00:00N 47°39' W 003°22'1 2.8
2017-May-23 23:30N 47°38' W 003°20'4 8.4
2017-May-23 23:00N 47°35' W 003°17'611.2
2017-May-23 22:30N 47°30' W 003°13'611.6
2017-May-23 22:00N 47°24' W 003°10'510.9
2017-May-23 21:30N 47°21' W 003°03'612.0
2017-May-23 21:00N 47°18' W 002°55'611.8
2017-May-23 20:30N 47°16' W 002°48'612.3
2017-May-23 20:00N 47°13' W 002°40'511.1
2017-May-23 19:30N 47°10' W 002°33'611.9
2017-May-23 19:00N 47°07' W 002°25'3 6.1
2017-May-23 18:30N 47°05' W 002°22'0 0.8
2017-May-23 18:00N 47°05' W 002°21'0 0.6
2017-May-23 17:30N 47°05' W 002°22'0 0.1
2017-May-23 16:59N 47°05' W 002°22'0 0.6
2017-May-23 16:30N 47°05' W 002°21'0 1.0
2017-May-23 16:00N 47°05' W 002°22'1 1.3
2017-May-23 15:31N 47°05' W 002°21'1 1.4
2017-May-23 15:00N 47°05' W 002°22'9 9.1
2017-May-23 14:00N 47°13' W 002°16'611.8
2017-May-23 13:30N 47°17' W 002°10'2 3.7
2017-May-23 13:00N 47°18' W 002°08'0 0.0
2017-May-23 12:30N 47°18' W 002°08'0 0.0
2017-May-23 12:00N 47°18' W 002°08'0 0.0
2017-May-23 11:30N 47°18' W 002°08'0 0.0
2017-May-23 11:00N 47°18' W 002°08'0 0.0
2017-May-23 10:30N 47°18' W 002°08'0 0.0
2017-May-23 10:00N 47°18' W 002°08'0 0.0
2017-May-23 09:30N 47°18' W 002°08'0 0.0
2017-May-23 09:00N 47°18' W 002°08'0 0.0
2017-May-23 08:30N 47°18' W 002°08'0 0.0
2017-May-23 08:00N 47°18' W 002°08'0 0.0
2017-May-23 07:30N 47°18' W 002°08'0 0.0
2017-May-23 07:00N 47°18' W 002°08'0 0.0
2017-May-23 06:30N 47°18' W 002°08'0 0.0
2017-May-23 06:00N 47°18' W 002°08'0 0.1
2017-May-23 05:30N 47°18' W 002°08'510.0
2017-May-23 05:00N 47°17' W 002°01'612.9
2017-May-23 04:31N 47°16' W 001°51'611.3
2017-May-23 04:00N 47°12' W 001°45'5 9.7
2017-May-23 03:30N 47°12' W 001°38'0 0.0
2017-May-23 03:00N 47°12' W 001°38'0 0.0
2017-May-23 02:30N 47°12' W 001°38'0 0.0
2017-May-23 02:00N 47°12' W 001°38'0 0.0
2017-May-23 01:30N 47°12' W 001°38'0 0.0
2017-May-23 01:00N 47°12' W 001°38'0 0.0
2017-May-23 00:30N 47°12' W 001°38'0 0.0
2017-May-23 00:00N 47°12' W 001°38'0 0.0
2017-May-22 23:30N 47°12' W 001°38'0 0.0
2017-May-22 23:00N 47°12' W 001°38'0 0.0
2017-May-22 22:30N 47°12' W 001°38'0 0.0
2017-May-22 22:00N 47°12' W 001°38'0 0.0
2017-May-22 21:30N 47°12' W 001°38'0 0.0
2017-May-22 21:00N 47°12' W 001°38'0 0.0
2017-May-22 20:31N 47°12' W 001°38'0 0.0
2017-May-22 20:00N 47°12' W 001°38'0 0.0
2017-May-22 19:30N 47°12' W 001°38'0 0.0
2017-May-22 19:00N 47°12' W 001°38'0 0.0
2017-May-22 18:30N 47°12' W 001°38'0 0.0
2017-May-22 18:00N 47°12' W 001°38'0 0.0
2017-May-22 17:30N 47°12' W 001°38'0 0.0
2017-May-22 16:59N 47°12' W 001°38'0 0.0
2017-May-22 16:27N 47°12' W 001°38'0 0.0
2017-May-22 16:00N 47°12' W 001°38'0 0.0
2017-May-22 15:29N 47°12' W 001°38'0 0.0
2017-May-22 15:00N 47°12' W 001°38'0 0.0
2017-May-22 13:59N 47°12' W 001°38'0 0.0
2017-May-22 13:28N 47°12' W 001°38'0 0.0
2017-May-22 13:00N 47°12' W 001°38'3 5.2
2017-May-22 12:30N 47°12' W 001°42'510.3
2017-May-22 12:00N 47°13' W 001°49'510.4
2017-May-22 11:30N 47°17' W 001°55'611.5
2017-May-22 11:00N 47°18' W 002°03'510.5
2017-May-22 10:30N 47°17' W 002°10'612.5
2017-May-22 10:00N 47°13' W 002°17'612.6
2017-May-22 09:30N 47°07' W 002°21'2 4.0
2017-May-22 09:00N 47°05' W 002°21'0 0.6
2017-May-22 08:28N 47°05' W 002°22'0 0.1
2017-May-22 08:00N 47°05' W 002°22'0 0.7
2017-May-22 07:30N 47°05' W 002°21'0 0.1
2017-May-22 07:00N 47°05' W 002°21'1 1.2
2017-May-22 06:31N 47°05' W 002°22'611.1
2017-May-22 06:00N 47°10' W 002°18'713.1
2017-May-22 05:31N 47°16' W 002°12'612.4
2017-May-22 05:00N 47°18' W 002°04'714.0
2017-May-22 04:30N 47°17' W 001°54'713.7
2017-May-22 04:00N 47°12' W 001°46'611.3
2017-May-22 03:30N 47°12' W 001°38'0 0.0
2017-May-22 03:00N 47°12' W 001°38'0 0.0
2017-May-22 02:30N 47°12' W 001°38'0 0.0
2017-May-22 02:00N 47°12' W 001°38'0 0.0
2017-May-22 01:30N 47°12' W 001°38'3 5.2
2017-May-22 01:00N 47°12' W 001°42'510.7
2017-May-22 00:30N 47°13' W 001°49'510.2
2017-May-22 00:00N 47°17' W 001°55'611.4
2017-May-21 23:30N 47°18' W 002°03'611.3
2017-May-21 23:00N 47°16' W 002°11'611.6
2017-May-21 22:30N 47°12' W 002°17'611.5
2017-May-21 22:00N 47°07' W 002°21'2 4.8
2017-May-21 21:30N 47°05' W 002°21'0 0.7
2017-May-21 20:58N 47°05' W 002°22'0 0.3
2017-May-21 20:30N 47°05' W 002°21'0 0.3
2017-May-21 20:00N 47°05' W 002°21'0 0.7
2017-May-21 19:30N 47°05' W 002°22'0 0.9
2017-May-21 19:00N 47°05' W 002°21'0 0.8
2017-May-21 18:30N 47°05' W 002°22'4 8.3
2017-May-21 18:00N 47°09' W 002°19'712.5
2017-May-21 17:28N 47°15' W 002°14'613.4
2017-May-21 17:00N 47°18' W 002°07'613.0
2017-May-21 16:30N 47°17' W 001°58'612.9
2017-May-21 16:01N 47°13' W 001°50'712.9
2017-May-21 15:30N 47°12' W 001°40'2 3.3
2017-May-21 15:00N 47°12' W 001°38'0 0.0
2017-May-21 14:00N 47°12' W 001°38'0 0.0
2017-May-21 13:30N 47°12' W 001°38'0 0.0
2017-May-21 13:00N 47°12' W 001°38'0 0.1
2017-May-21 12:30N 47°12' W 001°38'3 5.9
2017-May-21 12:00N 47°12' W 001°42'510.6
2017-May-21 11:30N 47°14' W 001°50'510.1
2017-May-21 11:00N 47°17' W 001°55'511.0
2017-May-21 10:30N 47°18' W 002°03'511.0
2017-May-21 10:00N 47°16' W 002°11'612.1
2017-May-21 09:30N 47°12' W 002°17'612.0
2017-May-21 09:00N 47°07' W 002°21'2 3.4
2017-May-21 08:30N 47°05' W 002°22'0 0.6
2017-May-21 08:00N 47°05' W 002°21'0 0.1
2017-May-21 07:30N 47°05' W 002°21'0 0.2
2017-May-21 07:00N 47°05' W 002°21'0 0.3
2017-May-21 06:30N 47°05' W 002°22'0 0.3
2017-May-21 06:00N 47°05' W 002°21'3 6.5
2017-May-21 05:30N 47°08' W 002°20'612.7
2017-May-21 05:01N 47°14' W 002°16'714.2
2017-May-21 04:30N 47°18' W 002°08'713.1
2017-May-21 04:01N 47°17' W 001°58'612.7
2017-May-21 03:30N 47°14' W 001°50'713.1
2017-May-21 03:01N 47°12' W 001°41'2 4.3
2017-May-21 02:30N 47°12' W 001°38'0 0.0
2017-May-21 02:00N 47°12' W 001°38'0 0.0
2017-May-21 01:30N 47°12' W 001°38'0 0.0
2017-May-21 01:00N 47°12' W 001°38'0 0.0
2017-May-21 00:30N 47°12' W 001°38'0 0.4
2017-May-21 00:00N 47°12' W 001°38'5 9.6
2017-May-20 23:30N 47°12' W 001°45'510.2
2017-May-20 23:00N 47°15' W 001°51'510.7
2017-May-20 22:30N 47°17' W 001°59'611.5
2017-May-20 22:00N 47°18' W 002°07'611.9
2017-May-20 21:30N 47°15' W 002°14'612.5
2017-May-20 21:00N 47°09' W 002°19'5 9.6
2017-May-20 20:30N 47°05' W 002°22'1 1.1
2017-May-20 20:00N 47°05' W 002°21'0 0.1
2017-May-20 19:30N 47°05' W 002°21'0 0.6
2017-May-20 19:00N 47°05' W 002°22'0 0.4
2017-May-20 18:30N 47°05' W 002°21'0 0.4
2017-May-20 18:00N 47°05' W 002°21'0 0.2
2017-May-20 17:30N 47°05' W 002°21'3 5.0
2017-May-20 17:00N 47°06' W 002°25'611.5
2017-May-20 16:31N 47°09' W 002°32'611.5
2017-May-20 16:00N 47°12' W 002°39'611.4
2017-May-20 15:30N 47°15' W 002°46'611.6
2017-May-20 15:00N 47°18' W 002°53'1211.7
2017-May-20 14:00N 47°23' W 003°09'611.4
2017-May-20 13:30N 47°26' W 003°16'611.7
2017-May-20 13:00N 47°30' W 003°23'611.9
2017-May-20 12:30N 47°33' W 003°30'611.9
2017-May-20 12:00N 47°37' W 003°37'611.8
2017-May-20 11:30N 47°41' W 003°43'611.4
2017-May-20 11:00N 47°44' W 003°50'611.4
2017-May-20 10:30N 47°47' W 003°57'5 8.0
2017-May-20 09:54N 47°52' W 003°55'  
Track history (hours):
 
Tides and Currents Weather Stations Pressure Air Temp Water Temp Dewpoint Dewpoint Depression Visibility Wind Speed Wind Dir Waves Ship Positions

St Pierre

Last reported at 2017-May-29 11:01 UTC. Time now 2017-May-29 11:26 UTC.
Position N 47°44' W 003°21'.

Length 84 m; draft 5.8 m.

Type: Cargo ship. MMSI: 228024800.

Date/timePositionNaut miles runAvg speedWind from/ knotsBaromVisibWave heightAir tempDewpointWater temp
2017-May-29 11:01N 47°44' W 003°21'0 0.0
2017-May-29 10:31N 47°44' W 003°21'0 0.0
2017-May-29 10:01N 47°44' W 003°21'0 0.0
2017-May-29 09:31N 47°44' W 003°21'0 0.0
2017-May-29 09:01N 47°44' W 003°21'0 0.0
2017-May-29 08:31N 47°44' W 003°21'0 0.0
2017-May-29 08:01N 47°44' W 003°21'0 0.0
2017-May-29 07:31N 47°44' W 003°21'0 0.0
2017-May-29 07:01N 47°44' W 003°21'0 0.0
2017-May-29 06:31N 47°44' W 003°21'0 0.0
2017-May-29 06:00N 47°44' W 003°21'0 0.0
2017-May-29 05:31N 47°44' W 003°21'0 0.0
2017-May-29 05:01N 47°44' W 003°21'0 0.0
2017-May-29 04:31N 47°44' W 003°21'0 0.0
2017-May-29 04:01N 47°44' W 003°21'0 0.0
2017-May-29 03:30N 47°44' W 003°21'0 0.0
2017-May-29 03:01N 47°44' W 003°21'0 0.0
2017-May-29 02:30N 47°44' W 003°21'0 0.0
2017-May-29 02:01N 47°44' W 003°21'0 0.0
2017-May-29 01:31N 47°44' W 003°21'0 0.0
2017-May-29 01:01N 47°44' W 003°21'0 0.0
2017-May-29 00:31N 47°44' W 003°21'0 0.0
2017-May-29 00:01N 47°44' W 003°21'0 0.0
2017-May-28 23:31N 47°44' W 003°21'0 0.0
2017-May-28 23:01N 47°44' W 003°21'0 0.0
2017-May-28 22:31N 47°44' W 003°21'0 0.0
2017-May-28 22:01N 47°44' W 003°21'0 0.0
2017-May-28 21:31N 47°44' W 003°21'0 0.0
2017-May-28 21:01N 47°44' W 003°21'0 0.0
2017-May-28 20:31N 47°44' W 003°21'0 0.0
2017-May-28 20:01N 47°44' W 003°21'0 0.0
2017-May-28 19:30N 47°44' W 003°21'0 0.0
2017-May-28 19:00N 47°44' W 003°21'0 0.0
2017-May-28 18:31N 47°44' W 003°21'0 0.0
2017-May-28 18:01N 47°44' W 003°21'0 0.0
2017-May-28 17:31N 47°44' W 003°21'3 5.9
2017-May-28 17:01N 47°41' W 003°22'4 7.8
2017-May-28 16:31N 47°38' W 003°19'510.4
2017-May-28 16:01N 47°33' W 003°16'611.5
2017-May-28 15:31N 47°28' W 003°12'611.2
2017-May-28 15:01N 47°23' W 003°08'1312.7
2017-May-28 14:00N 47°17' W 002°51'612.5
2017-May-28 13:31N 47°14' W 002°43'611.4
2017-May-28 12:58N 47°11' W 002°35'511.9
2017-May-28 12:31N 47°08' W 002°29'510.5
2017-May-28 12:00N 47°05' W 002°22'1 1.4
2017-May-28 11:31N 47°05' W 002°21'0 0.7
2017-May-28 11:00N 47°05' W 002°22'0 0.4
2017-May-28 10:31N 47°05' W 002°21'0 0.5
2017-May-28 10:00N 47°05' W 002°22'0 0.4
2017-May-28 09:30N 47°05' W 002°21'2 3.3
2017-May-28 09:01N 47°06' W 002°21'713.4
2017-May-28 08:31N 47°13' W 002°17'714.3
2017-May-28 08:00N 47°17' W 002°09'713.2
2017-May-28 07:30N 47°17' W 001°60'612.5
2017-May-28 07:00N 47°15' W 001°51'510.5
2017-May-28 06:30N 47°12' W 001°44'4 8.7
2017-May-28 06:00N 47°12' W 001°38'0 0.0
2017-May-28 05:30N 47°12' W 001°38'0 0.0
2017-May-28 05:00N 47°12' W 001°38'0 0.0
2017-May-28 04:30N 47°12' W 001°38'0 0.3
2017-May-28 04:00N 47°12' W 001°38'4 8.3
2017-May-28 03:30N 47°12' W 001°44'510.0
2017-May-28 03:00N 47°15' W 001°51'611.6
2017-May-28 02:30N 47°17' W 001°59'611.7
2017-May-28 02:01N 47°18' W 002°07'612.9
2017-May-28 01:31N 47°14' W 002°15'611.4
2017-May-28 01:01N 47°09' W 002°19'5 9.5
2017-May-28 00:31N 47°05' W 002°22'1 1.2
2017-May-28 00:01N 47°05' W 002°21'0 0.7
2017-May-27 23:31N 47°05' W 002°22'0 0.9
2017-May-27 23:00N 47°05' W 002°21'0 0.9
2017-May-27 22:31N 47°05' W 002°22'0 0.8
2017-May-27 22:00N 47°05' W 002°21'0 0.9
2017-May-27 21:31N 47°05' W 002°22'4 8.2
2017-May-27 21:00N 47°07' W 002°27'510.9
2017-May-27 20:30N 47°09' W 002°34'611.4
2017-May-27 20:00N 47°13' W 002°41'612.1
2017-May-27 19:31N 47°16' W 002°48'612.2
2017-May-27 19:00N 47°19' W 002°56'612.5
2017-May-27 18:31N 47°22' W 003°04'612.3
2017-May-27 18:01N 47°26' W 003°11'612.4
2017-May-27 17:31N 47°32' W 003°15'612.7
2017-May-27 17:01N 47°37' W 003°19'611.2
2017-May-27 16:31N 47°43' W 003°22'1 3.0
2017-May-27 16:01N 47°44' W 003°21'0 0.0
2017-May-27 15:31N 47°44' W 003°21'0 0.0
2017-May-27 15:01N 47°44' W 003°21'0 0.0
2017-May-27 14:01N 47°44' W 003°21'0 0.0
2017-May-27 13:31N 47°44' W 003°21'0 0.0
2017-May-27 13:01N 47°44' W 003°21'0 0.0
2017-May-27 12:31N 47°44' W 003°21'0 0.0
2017-May-27 12:01N 47°44' W 003°21'0 0.0
2017-May-27 11:31N 47°44' W 003°21'0 0.0
2017-May-27 11:01N 47°44' W 003°21'0 0.0
2017-May-27 10:31N 47°44' W 003°21'0 0.0
2017-May-27 10:01N 47°44' W 003°21'0 0.0
2017-May-27 09:31N 47°44' W 003°21'0 0.0
2017-May-27 09:00N 47°44' W 003°21'0 0.0
2017-May-27 08:31N 47°44' W 003°21'0 0.0
2017-May-27 08:00N 47°44' W 003°21'0 0.0
2017-May-27 07:31N 47°44' W 003°21'0 0.0
2017-May-27 07:01N 47°44' W 003°21'0 0.0
2017-May-27 06:31N 47°44' W 003°21'2 3.1
2017-May-27 06:01N 47°45' W 003°19'0 0.1
2017-May-27 05:31N 47°45' W 003°19'0 0.0
2017-May-27 05:01N 47°45' W 003°19'0 0.0
2017-May-27 04:31N 47°45' W 003°19'0 0.0
2017-May-27 04:01N 47°45' W 003°19'1 2.0
2017-May-27 03:31N 47°44' W 003°20'5 9.4
2017-May-27 03:01N 47°41' W 003°25'0 0.7
2017-May-27 02:31N 47°40' W 003°25'0 0.0
2017-May-27 02:01N 47°40' W 003°25'0 0.0
2017-May-27 01:31N 47°40' W 003°25'0 0.0
2017-May-27 01:01N 47°40' W 003°25'0 0.0
2017-May-27 00:31N 47°40' W 003°25'0 0.0
2017-May-27 00:01N 47°40' W 003°25'0 0.1
2017-May-26 23:31N 47°40' W 003°25'0 0.0
2017-May-26 23:01N 47°40' W 003°25'0 0.0
2017-May-26 22:31N 47°40' W 003°25'0 0.1
2017-May-26 22:01N 47°40' W 003°25'0 0.0
2017-May-26 21:31N 47°40' W 003°25'0 0.0
2017-May-26 21:01N 47°40' W 003°25'0 0.0
2017-May-26 20:31N 47°40' W 003°25'0 0.0
2017-May-26 20:01N 47°40' W 003°25'0 0.0
2017-May-26 19:31N 47°40' W 003°25'0 0.1
2017-May-26 19:01N 47°40' W 003°25'4 9.0
2017-May-26 18:31N 47°38' W 003°19'510.2
2017-May-26 18:01N 47°33' W 003°16'510.0
2017-May-26 17:31N 47°29' W 003°13'5 9.9
2017-May-26 17:01N 47°25' W 003°09'510.3
2017-May-26 16:31N 47°21' W 003°03'5 9.9
2017-May-26 16:01N 47°19' W 002°57'510.2
2017-May-26 15:30N 47°17' W 002°50'510.3
2017-May-26 15:00N 47°14' W 002°43'10 9.4
2017-May-26 13:55N 47°09' W 002°31'4 9.7
2017-May-26 13:29N 47°06' W 002°26'3 6.2
2017-May-26 13:00N 47°05' W 002°22'1 1.2
2017-May-26 12:30N 47°05' W 002°21'0 0.8
2017-May-26 12:00N 47°05' W 002°22'0 0.4
2017-May-26 11:23N 47°05' W 002°22'0 1.0
2017-May-26 11:00N 47°05' W 002°21'0 0.5
2017-May-26 10:27N 47°05' W 002°22'2 4.8
2017-May-26 09:56N 47°07' W 002°21'4 9.5
2017-May-26 09:30N 47°11' W 002°18'611.9
2017-May-26 09:00N 47°16' W 002°12'612.1
2017-May-26 08:30N 47°18' W 002°04'713.4
2017-May-26 08:00N 47°17' W 001°55'613.0
2017-May-26 07:30N 47°13' W 001°47'510.9
2017-May-26 07:00N 47°12' W 001°39'2 3.6
2017-May-26 06:30N 47°12' W 001°37'0 0.2
2017-May-26 06:00N 47°12' W 001°37'1 1.3
2017-May-26 05:30N 47°12' W 001°38'0 0.0
2017-May-26 05:00N 47°12' W 001°38'0 0.0
2017-May-26 04:30N 47°12' W 001°38'0 1.0
2017-May-26 04:00N 47°12' W 001°39'5 9.4
2017-May-26 03:30N 47°12' W 001°45'5 9.8
2017-May-26 03:00N 47°15' W 001°51'510.5
2017-May-26 02:30N 47°17' W 001°58'611.5
2017-May-26 02:00N 47°18' W 002°07'611.5
2017-May-26 01:30N 47°15' W 002°14'510.2
2017-May-26 01:00N 47°11' W 002°18'5 9.3
2017-May-26 00:30N 47°06' W 002°20'1 1.3
2017-May-25 23:59N 47°06' W 002°21'1 2.2
2017-May-25 23:30N 47°05' W 002°21'1 1.1
2017-May-25 23:00N 47°05' W 002°22'0 0.7
2017-May-25 22:30N 47°05' W 002°21'0 0.7
2017-May-25 22:00N 47°05' W 002°22'0 0.7
2017-May-25 21:30N 47°05' W 002°21'0 0.8
2017-May-25 21:00N 47°05' W 002°22'0 0.4
2017-May-25 20:30N 47°05' W 002°22'2 4.0
2017-May-25 19:59N 47°07' W 002°21'510.1
2017-May-25 19:30N 47°11' W 002°18'612.0
2017-May-25 19:00N 47°16' W 002°12'612.5
2017-May-25 18:30N 47°18' W 002°03'713.1
2017-May-25 18:00N 47°17' W 001°54'612.1
2017-May-25 17:31N 47°13' W 001°47'510.8
2017-May-25 17:00N 47°12' W 001°40'1 2.4
2017-May-25 16:30N 47°12' W 001°38'0 0.0
2017-May-25 16:00N 47°12' W 001°38'0 0.0
2017-May-25 15:30N 47°12' W 001°38'0 0.4
2017-May-25 15:00N 47°12' W 001°38'510.0
2017-May-25 14:30N 47°12' W 001°45'1211.9
2017-May-25 13:30N 47°18' W 002°01'712.8
2017-May-25 13:00N 47°17' W 002°11'612.6
2017-May-25 12:30N 47°12' W 002°17'612.1
2017-May-25 12:00N 47°07' W 002°20'2 3.6
2017-May-25 11:30N 47°05' W 002°22'1 1.0
2017-May-25 11:00N 47°05' W 002°21'0 0.9
2017-May-25 10:30N 47°05' W 002°22'0 0.3
2017-May-25 10:00N 47°05' W 002°21'0 0.3
2017-May-25 09:30N 47°05' W 002°22'0 0.1
2017-May-25 09:00N 47°05' W 002°22'0 0.6
2017-May-25 08:30N 47°05' W 002°21'1 1.1
2017-May-25 08:00N 47°05' W 002°22'4 8.2
2017-May-25 07:30N 47°09' W 002°19'612.7
2017-May-25 07:00N 47°14' W 002°15'713.3
2017-May-25 06:31N 47°18' W 002°07'0 0.0
2017-May-25 06:01N 47°18' W 002°07'0 0.0
2017-May-25 05:31N 47°18' W 002°07'0 0.0
2017-May-25 05:00N 47°18' W 002°07'0 0.0
2017-May-25 04:31N 47°18' W 002°07'1 1.3
2017-May-25 04:01N 47°18' W 002°08'4 8.7
2017-May-25 03:30N 47°15' W 002°13'510.0
2017-May-25 03:01N 47°11' W 002°18'510.2
2017-May-25 02:30N 47°07' W 002°21'2 3.1
2017-May-25 02:01N 47°06' W 002°22'0 0.2
2017-May-25 01:31N 47°06' W 002°22'0 0.3
2017-May-25 01:01N 47°06' W 002°22'0 0.8
2017-May-25 00:31N 47°06' W 002°22'1 1.1
2017-May-25 00:01N 47°05' W 002°22'1 1.1
2017-May-24 23:31N 47°06' W 002°22'1 1.2
2017-May-24 23:01N 47°05' W 002°22'0 1.0
2017-May-24 22:31N 47°06' W 002°22'3 6.2
2017-May-24 22:00N 47°09' W 002°20'510.3
2017-May-24 21:31N 47°13' W 002°16'611.7
2017-May-24 21:01N 47°17' W 002°10'611.8
2017-May-24 20:30N 47°18' W 002°02'713.2
2017-May-24 20:00N 47°16' W 001°52'612.8
2017-May-24 19:30N 47°12' W 001°45'4 9.0
2017-May-24 19:01N 47°12' W 001°38'0 0.0
2017-May-24 18:31N 47°12' W 001°38'0 0.0
2017-May-24 18:00N 47°12' W 001°38'0 0.0
2017-May-24 17:31N 47°12' W 001°38'0 0.0
2017-May-24 17:00N 47°12' W 001°38'3 6.7
2017-May-24 16:31N 47°12' W 001°43'5 9.6
2017-May-24 16:00N 47°13' W 001°50'6 9.8
2017-May-24 15:22N 47°17' W 001°57'4 9.9
2017-May-24 14:57N 47°18' W 002°03'510.5
2017-May-24 14:30N 47°17' W 002°10'1211.8
2017-May-24 13:28N 47°07' W 002°20'3 4.4
2017-May-24 12:53N 47°05' W 002°21'0 0.5
2017-May-24 12:19N 47°05' W 002°22'0 1.3
2017-May-24 12:00N 47°05' W 002°21'0 0.5
2017-May-24 11:28N 47°05' W 002°22'0 0.2
2017-May-24 10:57N 47°05' W 002°22'0 0.8
2017-May-24 10:30N 47°05' W 002°21'0 0.8
2017-May-24 10:00N 47°05' W 002°22'1 1.4
2017-May-24 09:30N 47°05' W 002°21'611.7
2017-May-24 09:01N 47°08' W 002°28'611.3
2017-May-24 08:30N 47°10' W 002°36'611.4
2017-May-24 08:00N 47°14' W 002°42'611.3
2017-May-24 07:31N 47°16' W 002°50'611.5
2017-May-24 07:00N 47°19' W 002°57'611.6
2017-May-24 06:31N 47°22' W 003°05'510.6
2017-May-24 06:01N 47°25' W 003°11'611.7
2017-May-24 05:31N 47°30' W 003°14'612.1
2017-May-24 05:01N 47°36' W 003°18'611.6
2017-May-24 04:30N 47°41' W 003°22'4 8.7
2017-May-24 04:00N 47°45' W 003°19'0 0.0
2017-May-24 03:30N 47°45' W 003°19'0 0.0
2017-May-24 03:00N 47°45' W 003°19'0 0.0
2017-May-24 02:30N 47°45' W 003°19'0 0.0
2017-May-24 02:00N 47°45' W 003°19'0 0.1
2017-May-24 01:30N 47°45' W 003°19'3 5.4
2017-May-24 01:00N 47°43' W 003°22'3 6.1
2017-May-24 00:30N 47°40' W 003°22'1 1.4
2017-May-24 00:00N 47°39' W 003°22'1 2.8
2017-May-23 23:30N 47°38' W 003°20'4 8.4
2017-May-23 23:00N 47°35' W 003°17'611.2
2017-May-23 22:30N 47°30' W 003°13'611.6
2017-May-23 22:00N 47°24' W 003°10'510.9
2017-May-23 21:30N 47°21' W 003°03'612.0
2017-May-23 21:00N 47°18' W 002°55'611.8
2017-May-23 20:30N 47°16' W 002°48'612.3
2017-May-23 20:00N 47°13' W 002°40'511.1
2017-May-23 19:30N 47°10' W 002°33'611.9
2017-May-23 19:00N 47°07' W 002°25'3 6.1
2017-May-23 18:30N 47°05' W 002°22'0 0.8
2017-May-23 18:00N 47°05' W 002°21'0 0.6
2017-May-23 17:30N 47°05' W 002°22'0 0.1
2017-May-23 16:59N 47°05' W 002°22'0 0.6
2017-May-23 16:30N 47°05' W 002°21'0 1.0
2017-May-23 16:00N 47°05' W 002°22'1 1.3
2017-May-23 15:31N 47°05' W 002°21'1 1.4
2017-May-23 15:00N 47°05' W 002°22'9 9.1
2017-May-23 14:00N 47°13' W 002°16'611.8
2017-May-23 13:30N 47°17' W 002°10'2 3.7
2017-May-23 13:00N 47°18' W 002°08'0 0.0
2017-May-23 12:30N 47°18' W 002°08'0 0.0
2017-May-23 12:00N 47°18' W 002°08'0 0.0
2017-May-23 11:30N 47°18' W 002°08'0 0.0
2017-May-23 11:00N 47°18' W 002°08'0 0.0
2017-May-23 10:30N 47°18' W 002°08'0 0.0
2017-May-23 10:00N 47°18' W 002°08'0 0.0
2017-May-23 09:30N 47°18' W 002°08'0 0.0
2017-May-23 09:00N 47°18' W 002°08'0 0.0
2017-May-23 08:30N 47°18' W 002°08'0 0.0
2017-May-23 08:00N 47°18' W 002°08'0 0.0
2017-May-23 07:30N 47°18' W 002°08'0 0.0
2017-May-23 07:00N 47°18' W 002°08'0 0.0
2017-May-23 06:30N 47°18' W 002°08'0 0.0
2017-May-23 06:00N 47°18' W 002°08'0 0.1
2017-May-23 05:30N 47°18' W 002°08'510.0
2017-May-23 05:00N 47°17' W 002°01'612.9
2017-May-23 04:31N 47°16' W 001°51'611.3
2017-May-23 04:00N 47°12' W 001°45'5 9.7
2017-May-23 03:30N 47°12' W 001°38'0 0.0
2017-May-23 03:00N 47°12' W 001°38'0 0.0
2017-May-23 02:30N 47°12' W 001°38'0 0.0
2017-May-23 02:00N 47°12' W 001°38'0 0.0
2017-May-23 01:30N 47°12' W 001°38'0 0.0
2017-May-23 01:00N 47°12' W 001°38'0 0.0
2017-May-23 00:30N 47°12' W 001°38'0 0.0
2017-May-23 00:00N 47°12' W 001°38'0 0.0
2017-May-22 23:30N 47°12' W 001°38'0 0.0
2017-May-22 23:00N 47°12' W 001°38'0 0.0
2017-May-22 22:30N 47°12' W 001°38'0 0.0
2017-May-22 22:00N 47°12' W 001°38'0 0.0
2017-May-22 21:30N 47°12' W 001°38'0 0.0
2017-May-22 21:00N 47°12' W 001°38'0 0.0
2017-May-22 20:31N 47°12' W 001°38'0 0.0
2017-May-22 20:00N 47°12' W 001°38'0 0.0
2017-May-22 19:30N 47°12' W 001°38'0 0.0
2017-May-22 19:00N 47°12' W 001°38'0 0.0
2017-May-22 18:30N 47°12' W 001°38'0 0.0
2017-May-22 18:00N 47°12' W 001°38'0 0.0
2017-May-22 17:30N 47°12' W 001°38'0 0.0
2017-May-22 16:59N 47°12' W 001°38'0 0.0
2017-May-22 16:27N 47°12' W 001°38'0 0.0
2017-May-22 16:00N 47°12' W 001°38'0 0.0
2017-May-22 15:29N 47°12' W 001°38'0 0.0
2017-May-22 15:00N 47°12' W 001°38'0 0.0
2017-May-22 13:59N 47°12' W 001°38'0 0.0
2017-May-22 13:28N 47°12' W 001°38'0 0.0
2017-May-22 13:00N 47°12' W 001°38'3 5.2
2017-May-22 12:30N 47°12' W 001°42'510.3
2017-May-22 12:00N 47°13' W 001°49'510.4
2017-May-22 11:30N 47°17' W 001°55'611.5
2017-May-22 11:00N 47°18' W 002°03'510.5
2017-May-22 10:30N 47°17' W 002°10'612.5
2017-May-22 10:00N 47°13' W 002°17'612.6
2017-May-22 09:30N 47°07' W 002°21'2 4.0
2017-May-22 09:00N 47°05' W 002°21'0 0.6
2017-May-22 08:28N 47°05' W 002°22'0 0.1
2017-May-22 08:00N 47°05' W 002°22'0 0.7
2017-May-22 07:30N 47°05' W 002°21'0 0.1
2017-May-22 07:00N 47°05' W 002°21'1 1.2
2017-May-22 06:31N 47°05' W 002°22'611.1
2017-May-22 06:00N 47°10' W 002°18'713.1
2017-May-22 05:31N 47°16' W 002°12'612.4
2017-May-22 05:00N 47°18' W 002°04'714.0
2017-May-22 04:30N 47°17' W 001°54'713.7
2017-May-22 04:00N 47°12' W 001°46'611.3
2017-May-22 03:30N 47°12' W 001°38'0 0.0
2017-May-22 03:00N 47°12' W 001°38'0 0.0
2017-May-22 02:30N 47°12' W 001°38'0 0.0
2017-May-22 02:00N 47°12' W 001°38'0 0.0
2017-May-22 01:30N 47°12' W 001°38'3 5.2
2017-May-22 01:00N 47°12' W 001°42'510.7
2017-May-22 00:30N 47°13' W 001°49'510.2
2017-May-22 00:00N 47°17' W 001°55'611.4
2017-May-21 23:30N 47°18' W 002°03'611.3
2017-May-21 23:00N 47°16' W 002°11'611.6
2017-May-21 22:30N 47°12' W 002°17'611.5
2017-May-21 22:00N 47°07' W 002°21'2 4.8
2017-May-21 21:30N 47°05' W 002°21'0 0.7
2017-May-21 20:58N 47°05' W 002°22'0 0.3
2017-May-21 20:30N 47°05' W 002°21'0 0.3
2017-May-21 20:00N 47°05' W 002°21'0 0.7
2017-May-21 19:30N 47°05' W 002°22'0 0.9
2017-May-21 19:00N 47°05' W 002°21'0 0.8
2017-May-21 18:30N 47°05' W 002°22'4 8.3
2017-May-21 18:00N 47°09' W 002°19'712.5
2017-May-21 17:28N 47°15' W 002°14'613.4
2017-May-21 17:00N 47°18' W 002°07'613.0
2017-May-21 16:30N 47°17' W 001°58'612.9
2017-May-21 16:01N 47°13' W 001°50'712.9
2017-May-21 15:30N 47°12' W 001°40'2 3.3
2017-May-21 15:00N 47°12' W 001°38'0 0.0
2017-May-21 14:00N 47°12' W 001°38'0 0.0
2017-May-21 13:30N 47°12' W 001°38'0 0.0
2017-May-21 13:00N 47°12' W 001°38'0 0.1
2017-May-21 12:30N 47°12' W 001°38'3 5.9
2017-May-21 12:00N 47°12' W 001°42'510.6
2017-May-21 11:30N 47°14' W 001°50'510.1
2017-May-21 11:00N 47°17' W 001°55'511.0
2017-May-21 10:30N 47°18' W 002°03'511.0
2017-May-21 10:00N 47°16' W 002°11'612.1
2017-May-21 09:30N 47°12' W 002°17'612.0
2017-May-21 09:00N 47°07' W 002°21'2 3.4
2017-May-21 08:30N 47°05' W 002°22'0 0.6
2017-May-21 08:00N 47°05' W 002°21'0 0.1
2017-May-21 07:30N 47°05' W 002°21'0 0.2
2017-May-21 07:00N 47°05' W 002°21'0 0.3
2017-May-21 06:30N 47°05' W 002°22'0 0.3
2017-May-21 06:00N 47°05' W 002°21'3 6.5
2017-May-21 05:30N 47°08' W 002°20'612.7
2017-May-21 05:01N 47°14' W 002°16'714.2
2017-May-21 04:30N 47°18' W 002°08'713.1
2017-May-21 04:01N 47°17' W 001°58'612.7
2017-May-21 03:30N 47°14' W 001°50'713.1
2017-May-21 03:01N 47°12' W 001°41'2 4.3
2017-May-21 02:30N 47°12' W 001°38'0 0.0
2017-May-21 02:00N 47°12' W 001°38'0 0.0
2017-May-21 01:30N 47°12' W 001°38'0 0.0
2017-May-21 01:00N 47°12' W 001°38'0 0.0
2017-May-21 00:30N 47°12' W 001°38'0 0.4
2017-May-21 00:00N 47°12' W 001°38'5 9.6
2017-May-20 23:30N 47°12' W 001°45'510.2
2017-May-20 23:00N 47°15' W 001°51'510.7
2017-May-20 22:30N 47°17' W 001°59'611.5
2017-May-20 22:00N 47°18' W 002°07'611.9
2017-May-20 21:30N 47°15' W 002°14'612.5
2017-May-20 21:00N 47°09' W 002°19'5 9.6
2017-May-20 20:30N 47°05' W 002°22'1 1.1
2017-May-20 20:00N 47°05' W 002°21'0 0.1
2017-May-20 19:30N 47°05' W 002°21'0 0.6
2017-May-20 19:00N 47°05' W 002°22'0 0.4
2017-May-20 18:30N 47°05' W 002°21'0 0.4
2017-May-20 18:00N 47°05' W 002°21'0 0.2
2017-May-20 17:30N 47°05' W 002°21'3 5.0
2017-May-20 17:00N 47°06' W 002°25'611.5
2017-May-20 16:31N 47°09' W 002°32'611.5
2017-May-20 16:00N 47°12' W 002°39'611.4
2017-May-20 15:30N 47°15' W 002°46'611.6
2017-May-20 15:00N 47°18' W 002°53'1211.7
2017-May-20 14:00N 47°23' W 003°09'611.4
2017-May-20 13:30N 47°26' W 003°16'611.7
2017-May-20 13:00N 47°30' W 003°23'611.9
2017-May-20 12:30N 47°33' W 003°30'611.9
2017-May-20 12:00N 47°37' W 003°37'611.8
2017-May-20 11:30N 47°41' W 003°43'611.4
2017-May-20 11:00N 47°44' W 003°50'611.4
2017-May-20 10:30N 47°47' W 003°57'5 8.0
2017-May-20 09:54N 47°52' W 003°55'  

Dump ship's entire track history